Gould, Oklahoma
Current Conditions -  °F | °C
As of 12:35 AM on Sunday 21 Dec 2014 (Local Time) from KAXS Reporting Station
Haze Haze  
Wind Chill: 37°   Ceiling: 4700
Heat Index: 42°   Visibility: 5mi
Dew Point: 40°   Wind: 9mph
Humidity: 91%   Direction: 140°SE
Pressure: 30.11"   Gusts: NA
Location:  34.67°N, 99.77°W
Report Text: KAXS 210635Z AUTO 14008KT 5SM BR SCT033 SCT040 BKN047 06/04 A3011 RMK AO2 T00560043
Loading
Personal Weather Stations






























Interactive Weather Map New forecast layout! Learn more

10-Day Weather Forecast

Advertisements
Track Severe Weather on mobile